sensor_id;sensor_type;location;lat;lon;timestamp;P1;durP1;ratioP1;P2;durP2;ratioP2
28605;SDS011;46498;49.968;7.754;2023-07-02T00:02:09;7.03;;;2.20;;
28605;SDS011;46498;49.968;7.754;2023-07-02T00:07:10;5.20;;;2.03;;
28605;SDS011;46498;49.968;7.754;2023-07-02T00:12:11;8.93;;;2.58;;
28605;SDS011;46498;49.968;7.754;2023-07-02T00:17:12;10.77;;;2.83;;
28605;SDS011;46498;49.968;7.754;2023-07-02T00:22:13;9.77;;;2.85;;
28605;SDS011;46498;49.968;7.754;2023-07-02T00:32:17;10.88;;;2.85;;
28605;SDS011;46498;49.968;7.754;2023-07-02T00:37:18;10.18;;;3.22;;
28605;SDS011;46498;49.968;7.754;2023-07-02T00:42:19;9.23;;;2.85;;
28605;SDS011;46498;49.968;7.754;2023-07-02T00:47:20;8.40;;;3.05;;
28605;SDS011;46498;49.968;7.754;2023-07-02T00:52:21;5.70;;;3.10;;
28605;SDS011;46498;49.968;7.754;2023-07-02T00:57:24;11.35;;;3.67;;
28605;SDS011;46498;49.968;7.754;2023-07-02T01:02:30;7.22;;;3.28;;
28605;SDS011;46498;49.968;7.754;2023-07-02T01:07:31;12.30;;;3.87;;
28605;SDS011;46498;49.968;7.754;2023-07-02T01:12:32;11.88;;;3.58;;
28605;SDS011;46498;49.968;7.754;2023-07-02T01:17:35;9.38;;;3.95;;
28605;SDS011;46498;49.968;7.754;2023-07-02T01:22:42;12.45;;;3.60;;
28605;SDS011;46498;49.968;7.754;2023-07-02T01:27:43;12.73;;;4.20;;
28605;SDS011;46498;49.968;7.754;2023-07-02T01:32:44;8.95;;;3.83;;
28605;SDS011;46498;49.968;7.754;2023-07-02T01:37:45;8.90;;;3.72;;
28605;SDS011;46498;49.968;7.754;2023-07-02T01:42:46;12.52;;;4.22;;
28605;SDS011;46498;49.968;7.754;2023-07-02T01:47:47;9.55;;;4.12;;
28605;SDS011;46498;49.968;7.754;2023-07-02T01:52:47;11.00;;;4.95;;
28605;SDS011;46498;49.968;7.754;2023-07-02T01:57:48;12.55;;;4.30;;
28605;SDS011;46498;49.968;7.754;2023-07-02T02:02:49;10.45;;;4.60;;
28605;SDS011;46498;49.968;7.754;2023-07-02T02:07:51;8.32;;;3.87;;
28605;SDS011;46498;49.968;7.754;2023-07-02T02:12:52;10.65;;;4.70;;
28605;SDS011;46498;49.968;7.754;2023-07-02T02:17:53;12.32;;;4.90;;
28605;SDS011;46498;49.968;7.754;2023-07-02T02:22:54;13.98;;;5.20;;
28605;SDS011;46498;49.968;7.754;2023-07-02T02:27:55;14.85;;;5.03;;
28605;SDS011;46498;49.968;7.754;2023-07-02T02:32:56;13.20;;;6.28;;
28605;SDS011;46498;49.968;7.754;2023-07-02T02:38:00;12.52;;;5.65;;
28605;SDS011;46498;49.968;7.754;2023-07-02T02:43:04;15.52;;;6.40;;
28605;SDS011;46498;49.968;7.754;2023-07-02T02:48:05;18.45;;;7.70;;
28605;SDS011;46498;49.968;7.754;2023-07-02T02:53:06;16.27;;;6.68;;
28605;SDS011;46498;49.968;7.754;2023-07-02T02:58:09;16.45;;;7.07;;
28605;SDS011;46498;49.968;7.754;2023-07-02T03:03:12;15.80;;;7.25;;
28605;SDS011;46498;49.968;7.754;2023-07-02T03:08:14;18.67;;;8.45;;
28605;SDS011;46498;49.968;7.754;2023-07-02T03:13:15;24.05;;;8.38;;
28605;SDS011;46498;49.968;7.754;2023-07-02T03:18:16;19.95;;;8.57;;
28605;SDS011;46498;49.968;7.754;2023-07-02T03:23:17;19.12;;;8.10;;
28605;SDS011;46498;49.968;7.754;2023-07-02T03:28:18;26.20;;;9.68;;
28605;SDS011;46498;49.968;7.754;2023-07-02T03:33:19;16.75;;;8.23;;
28605;SDS011;46498;49.968;7.754;2023-07-02T03:38:20;22.48;;;9.35;;
28605;SDS011;46498;49.968;7.754;2023-07-02T03:43:20;18.58;;;8.50;;
28605;SDS011;46498;49.968;7.754;2023-07-02T03:48:21;29.17;;;9.45;;
28605;SDS011;46498;49.968;7.754;2023-07-02T03:53:23;22.27;;;8.90;;
28605;SDS011;46498;49.968;7.754;2023-07-02T03:58:24;21.77;;;9.13;;
28605;SDS011;46498;49.968;7.754;2023-07-02T04:03:25;23.02;;;8.80;;
28605;SDS011;46498;49.968;7.754;2023-07-02T04:08:26;19.73;;;9.30;;
28605;SDS011;46498;49.968;7.754;2023-07-02T04:13:28;24.43;;;10.97;;
28605;SDS011;46498;49.968;7.754;2023-07-02T04:18:29;28.95;;;11.10;;
28605;SDS011;46498;49.968;7.754;2023-07-02T04:23:30;22.02;;;10.73;;
28605;SDS011;46498;49.968;7.754;2023-07-02T04:28:32;27.75;;;11.48;;
28605;SDS011;46498;49.968;7.754;2023-07-02T04:33:33;23.50;;;10.90;;
28605;SDS011;46498;49.968;7.754;2023-07-02T04:38:36;27.30;;;11.63;;
28605;SDS011;46498;49.968;7.754;2023-07-02T04:43:39;27.50;;;11.52;;
28605;SDS011;46498;49.968;7.754;2023-07-02T04:48:40;27.55;;;12.13;;
28605;SDS011;46498;49.968;7.754;2023-07-02T04:53:41;26.37;;;12.07;;
28605;SDS011;46498;49.968;7.754;2023-07-02T04:58:42;32.50;;;13.02;;
28605;SDS011;46498;49.968;7.754;2023-07-02T05:03:43;32.40;;;13.62;;
28605;SDS011;46498;49.968;7.754;2023-07-02T05:08:44;33.17;;;13.23;;
28605;SDS011;46498;49.968;7.754;2023-07-02T05:13:45;32.13;;;14.30;;
28605;SDS011;46498;49.968;7.754;2023-07-02T05:18:46;33.80;;;13.10;;
28605;SDS011;46498;49.968;7.754;2023-07-02T05:23:47;27.45;;;12.93;;
28605;SDS011;46498;49.968;7.754;2023-07-02T05:28:48;29.42;;;13.43;;
28605;SDS011;46498;49.968;7.754;2023-07-02T05:33:49;32.65;;;13.45;;
28605;SDS011;46498;49.968;7.754;2023-07-02T05:38:50;35.42;;;14.65;;
28605;SDS011;46498;49.968;7.754;2023-07-02T05:43:51;32.22;;;14.55;;
28605;SDS011;46498;49.968;7.754;2023-07-02T05:48:53;33.88;;;13.82;;
28605;SDS011;46498;49.968;7.754;2023-07-02T05:53:57;40.75;;;14.32;;
28605;SDS011;46498;49.968;7.754;2023-07-02T05:58:58;31.20;;;13.52;;
28605;SDS011;46498;49.968;7.754;2023-07-02T06:03:59;33.88;;;13.90;;
28605;SDS011;46498;49.968;7.754;2023-07-02T06:09:01;27.17;;;12.95;;
28605;SDS011;46498;49.968;7.754;2023-07-02T06:14:02;31.75;;;14.25;;
28605;SDS011;46498;49.968;7.754;2023-07-02T06:19:03;29.92;;;13.75;;
28605;SDS011;46498;49.968;7.754;2023-07-02T06:24:04;32.88;;;13.62;;
28605;SDS011;46498;49.968;7.754;2023-07-02T06:29:05;28.60;;;13.75;;
28605;SDS011;46498;49.968;7.754;2023-07-02T06:34:06;34.25;;;13.75;;
28605;SDS011;46498;49.968;7.754;2023-07-02T06:39:09;35.13;;;14.20;;
28605;SDS011;46498;49.968;7.754;2023-07-02T06:44:10;32.00;;;13.85;;
28605;SDS011;46498;49.968;7.754;2023-07-02T06:49:10;32.45;;;14.10;;
28605;SDS011;46498;49.968;7.754;2023-07-02T06:54:11;37.55;;;14.95;;
28605;SDS011;46498;49.968;7.754;2023-07-02T06:59:18;29.37;;;14.80;;
28605;SDS011;46498;49.968;7.754;2023-07-02T07:04:23;31.50;;;13.77;;
28605;SDS011;46498;49.968;7.754;2023-07-02T07:09:24;29.73;;;13.70;;
28605;SDS011;46498;49.968;7.754;2023-07-02T07:14:26;27.87;;;13.50;;
28605;SDS011;46498;49.968;7.754;2023-07-02T07:19:27;28.83;;;12.43;;
28605;SDS011;46498;49.968;7.754;2023-07-02T07:24:28;29.05;;;13.50;;
28605;SDS011;46498;49.968;7.754;2023-07-02T07:29:29;26.83;;;12.20;;
28605;SDS011;46498;49.968;7.754;2023-07-02T07:34:30;36.42;;;14.15;;
28605;SDS011;46498;49.968;7.754;2023-07-02T07:39:30;25.20;;;12.23;;
28605;SDS011;46498;49.968;7.754;2023-07-02T07:44:31;26.95;;;12.85;;
28605;SDS011;46498;49.968;7.754;2023-07-02T07:49:32;29.70;;;13.32;;
28605;SDS011;46498;49.968;7.754;2023-07-02T07:54:33;29.17;;;13.75;;
28605;SDS011;46498;49.968;7.754;2023-07-02T07:59:37;29.45;;;13.18;;
28605;SDS011;46498;49.968;7.754;2023-07-02T08:04:38;28.67;;;14.30;;
28605;SDS011;46498;49.968;7.754;2023-07-02T08:09:39;30.75;;;14.02;;
28605;SDS011;46498;49.968;7.754;2023-07-02T08:14:39;33.55;;;14.38;;
28605;SDS011;46498;49.968;7.754;2023-07-02T08:19:40;29.50;;;14.32;;
28605;SDS011;46498;49.968;7.754;2023-07-02T08:24:41;29.73;;;13.77;;
28605;SDS011;46498;49.968;7.754;2023-07-02T08:34:47;29.30;;;13.60;;
28605;SDS011;46498;49.968;7.754;2023-07-02T08:39:48;31.92;;;15.13;;
28605;SDS011;46498;49.968;7.754;2023-07-02T08:44:53;34.78;;;15.90;;
28605;SDS011;46498;49.968;7.754;2023-07-02T08:49:55;32.85;;;15.18;;
28605;SDS011;46498;49.968;7.754;2023-07-02T08:54:56;37.22;;;15.25;;
28605;SDS011;46498;49.968;7.754;2023-07-02T08:59:57;30.48;;;14.25;;
28605;SDS011;46498;49.968;7.754;2023-07-02T09:04:59;26.48;;;12.60;;
28605;SDS011;46498;49.968;7.754;2023-07-02T09:10:01;28.90;;;13.65;;
28605;SDS011;46498;49.968;7.754;2023-07-02T09:15:05;26.62;;;13.07;;
28605;SDS011;46498;49.968;7.754;2023-07-02T09:20:09;28.33;;;13.65;;
28605;SDS011;46498;49.968;7.754;2023-07-02T09:25:10;29.92;;;12.85;;
28605;SDS011;46498;49.968;7.754;2023-07-02T09:30:13;26.13;;;12.63;;
28605;SDS011;46498;49.968;7.754;2023-07-02T09:35:16;25.12;;;11.20;;
28605;SDS011;46498;49.968;7.754;2023-07-02T09:40:17;24.87;;;12.18;;
28605;SDS011;46498;49.968;7.754;2023-07-02T09:45:18;22.95;;;12.05;;
28605;SDS011;46498;49.968;7.754;2023-07-02T09:50:19;25.45;;;13.20;;
28605;SDS011;46498;49.968;7.754;2023-07-02T10:00:23;31.60;;;14.87;;
28605;SDS011;46498;49.968;7.754;2023-07-02T10:05:31;33.30;;;15.25;;
28605;SDS011;46498;49.968;7.754;2023-07-02T10:10:33;36.33;;;15.93;;
28605;SDS011;46498;49.968;7.754;2023-07-02T10:15:34;32.85;;;14.55;;
28605;SDS011;46498;49.968;7.754;2023-07-02T10:20:38;28.87;;;13.98;;
28605;SDS011;46498;49.968;7.754;2023-07-02T10:25:40;24.87;;;13.57;;
28605;SDS011;46498;49.968;7.754;2023-07-02T10:30:41;25.70;;;12.68;;
28605;SDS011;46498;49.968;7.754;2023-07-02T10:35:43;29.65;;;13.45;;
28605;SDS011;46498;49.968;7.754;2023-07-02T10:40:59;24.10;;;12.27;;
28605;SDS011;46498;49.968;7.754;2023-07-02T10:46:01;25.42;;;12.00;;
28605;SDS011;46498;49.968;7.754;2023-07-02T10:51:10;24.42;;;11.57;;
28605;SDS011;46498;49.968;7.754;2023-07-02T10:56:15;20.17;;;10.70;;
28605;SDS011;46498;49.968;7.754;2023-07-02T11:01:23;24.50;;;11.02;;
28605;SDS011;46498;49.968;7.754;2023-07-02T11:06:29;29.15;;;11.65;;
28605;SDS011;46498;49.968;7.754;2023-07-02T11:11:31;20.70;;;11.50;;
28605;SDS011;46498;49.968;7.754;2023-07-02T11:16:32;24.52;;;12.20;;
28605;SDS011;46498;49.968;7.754;2023-07-02T11:21:38;28.20;;;13.18;;
28605;SDS011;46498;49.968;7.754;2023-07-02T11:26:54;28.00;;;12.43;;
28605;SDS011;46498;49.968;7.754;2023-07-02T11:32:08;28.70;;;13.32;;
28605;SDS011;46498;49.968;7.754;2023-07-02T11:37:11;25.52;;;12.55;;
28605;SDS011;46498;49.968;7.754;2023-07-02T11:42:11;27.48;;;13.23;;
28605;SDS011;46498;49.968;7.754;2023-07-02T11:47:12;28.67;;;14.30;;
28605;SDS011;46498;49.968;7.754;2023-07-02T11:52:13;25.12;;;13.18;;
28605;SDS011;46498;49.968;7.754;2023-07-02T11:57:15;27.05;;;12.63;;
28605;SDS011;46498;49.968;7.754;2023-07-02T12:02:16;29.00;;;13.95;;
28605;SDS011;46498;49.968;7.754;2023-07-02T12:07:17;30.67;;;13.60;;
28605;SDS011;46498;49.968;7.754;2023-07-02T12:12:19;29.45;;;14.43;;
28605;SDS011;46498;49.968;7.754;2023-07-02T12:17:19;30.08;;;14.32;;
28605;SDS011;46498;49.968;7.754;2023-07-02T12:22:20;27.92;;;13.75;;
28605;SDS011;46498;49.968;7.754;2023-07-02T12:27:23;31.62;;;14.40;;
28605;SDS011;46498;49.968;7.754;2023-07-02T12:32:25;29.08;;;13.73;;
28605;SDS011;46498;49.968;7.754;2023-07-02T12:37:27;27.58;;;13.93;;
28605;SDS011;46498;49.968;7.754;2023-07-02T12:42:28;25.75;;;13.25;;
28605;SDS011;46498;49.968;7.754;2023-07-02T12:47:28;26.95;;;14.00;;
28605;SDS011;46498;49.968;7.754;2023-07-02T12:52:29;33.70;;;14.73;;
28605;SDS011;46498;49.968;7.754;2023-07-02T12:57:31;31.83;;;13.98;;
28605;SDS011;46498;49.968;7.754;2023-07-02T13:02:32;30.37;;;14.57;;
28605;SDS011;46498;49.968;7.754;2023-07-02T13:07:33;27.87;;;13.05;;
28605;SDS011;46498;49.968;7.754;2023-07-02T13:12:34;29.30;;;14.05;;
28605;SDS011;46498;49.968;7.754;2023-07-02T13:17:34;26.98;;;14.18;;
28605;SDS011;46498;49.968;7.754;2023-07-02T13:22:35;30.65;;;13.88;;
28605;SDS011;46498;49.968;7.754;2023-07-02T13:27:38;26.52;;;13.48;;
28605;SDS011;46498;49.968;7.754;2023-07-02T13:32:38;27.00;;;13.98;;
28605;SDS011;46498;49.968;7.754;2023-07-02T13:37:40;30.75;;;14.70;;
28605;SDS011;46498;49.968;7.754;2023-07-02T13:42:41;32.97;;;13.90;;
28605;SDS011;46498;49.968;7.754;2023-07-02T13:47:42;30.48;;;15.60;;
28605;SDS011;46498;49.968;7.754;2023-07-02T13:52:43;30.02;;;14.25;;
28605;SDS011;46498;49.968;7.754;2023-07-02T13:57:46;31.23;;;14.60;;
28605;SDS011;46498;49.968;7.754;2023-07-02T14:02:47;28.48;;;13.85;;
28605;SDS011;46498;49.968;7.754;2023-07-02T14:07:48;26.58;;;14.02;;
28605;SDS011;46498;49.968;7.754;2023-07-02T14:12:49;26.92;;;13.80;;
28605;SDS011;46498;49.968;7.754;2023-07-02T14:17:50;28.95;;;13.75;;
28605;SDS011;46498;49.968;7.754;2023-07-02T14:22:51;28.67;;;13.95;;
28605;SDS011;46498;49.968;7.754;2023-07-02T14:27:52;22.52;;;12.63;;
28605;SDS011;46498;49.968;7.754;2023-07-02T14:32:53;25.83;;;13.07;;
28605;SDS011;46498;49.968;7.754;2023-07-02T14:37:54;23.83;;;12.60;;
28605;SDS011;46498;49.968;7.754;2023-07-02T14:42:55;26.70;;;13.15;;
28605;SDS011;46498;49.968;7.754;2023-07-02T14:47:56;22.50;;;12.55;;
28605;SDS011;46498;49.968;7.754;2023-07-02T14:53:00;26.02;;;13.25;;
28605;SDS011;46498;49.968;7.754;2023-07-02T14:58:01;26.80;;;12.75;;
28605;SDS011;46498;49.968;7.754;2023-07-02T15:03:02;26.35;;;13.38;;
28605;SDS011;46498;49.968;7.754;2023-07-02T15:08:04;27.77;;;13.40;;
28605;SDS011;46498;49.968;7.754;2023-07-02T15:13:05;29.02;;;13.70;;
28605;SDS011;46498;49.968;7.754;2023-07-02T15:23:08;27.23;;;13.05;;
28605;SDS011;46498;49.968;7.754;2023-07-02T15:28:09;27.40;;;13.50;;
28605;SDS011;46498;49.968;7.754;2023-07-02T15:33:10;28.52;;;13.25;;
28605;SDS011;46498;49.968;7.754;2023-07-02T15:38:11;26.58;;;12.95;;
28605;SDS011;46498;49.968;7.754;2023-07-02T15:43:12;25.52;;;12.95;;
28605;SDS011;46498;49.968;7.754;2023-07-02T15:48:13;21.98;;;12.05;;
28605;SDS011;46498;49.968;7.754;2023-07-02T15:53:14;28.60;;;12.65;;
28605;SDS011;46498;49.968;7.754;2023-07-02T15:58:15;24.00;;;11.80;;
28605;SDS011;46498;49.968;7.754;2023-07-02T16:03:16;31.50;;;12.80;;
28605;SDS011;46498;49.968;7.754;2023-07-02T16:08:17;25.05;;;12.73;;
28605;SDS011;46498;49.968;7.754;2023-07-02T16:13:18;28.55;;;13.15;;
28605;SDS011;46498;49.968;7.754;2023-07-02T16:18:19;27.20;;;12.88;;
28605;SDS011;46498;49.968;7.754;2023-07-02T16:23:20;30.85;;;13.48;;
28605;SDS011;46498;49.968;7.754;2023-07-02T16:28:21;29.73;;;13.55;;
28605;SDS011;46498;49.968;7.754;2023-07-02T16:33:23;25.42;;;12.57;;
28605;SDS011;46498;49.968;7.754;2023-07-02T16:38:24;25.52;;;12.07;;
28605;SDS011;46498;49.968;7.754;2023-07-02T16:43:25;30.27;;;13.05;;
28605;SDS011;46498;49.968;7.754;2023-07-02T16:53:28;26.12;;;12.40;;
28605;SDS011;46498;49.968;7.754;2023-07-02T16:58:30;29.83;;;11.98;;
28605;SDS011;46498;49.968;7.754;2023-07-02T17:03:32;27.27;;;13.68;;
28605;SDS011;46498;49.968;7.754;2023-07-02T17:08:37;27.40;;;12.10;;
28605;SDS011;46498;49.968;7.754;2023-07-02T17:13:40;30.52;;;12.23;;
28605;SDS011;46498;49.968;7.754;2023-07-02T17:18:41;28.58;;;12.35;;
28605;SDS011;46498;49.968;7.754;2023-07-02T17:23:42;30.12;;;12.05;;
28605;SDS011;46498;49.968;7.754;2023-07-02T17:28:43;28.42;;;12.82;;
28605;SDS011;46498;49.968;7.754;2023-07-02T17:33:43;24.67;;;11.77;;
28605;SDS011;46498;49.968;7.754;2023-07-02T17:38:44;28.27;;;11.60;;
28605;SDS011;46498;49.968;7.754;2023-07-02T17:43:45;26.52;;;11.12;;
28605;SDS011;46498;49.968;7.754;2023-07-02T17:48:46;33.50;;;11.52;;
28605;SDS011;46498;49.968;7.754;2023-07-02T17:53:47;27.05;;;11.70;;
28605;SDS011;46498;49.968;7.754;2023-07-02T17:58:48;26.50;;;11.95;;
28605;SDS011;46498;49.968;7.754;2023-07-02T18:03:49;27.67;;;10.90;;
28605;SDS011;46498;49.968;7.754;2023-07-02T18:08:50;31.50;;;11.90;;
28605;SDS011;46498;49.968;7.754;2023-07-02T18:13:51;28.35;;;11.12;;
28605;SDS011;46498;49.968;7.754;2023-07-02T18:18:51;24.10;;;11.57;;
28605;SDS011;46498;49.968;7.754;2023-07-02T18:23:53;30.08;;;11.70;;
28605;SDS011;46498;49.968;7.754;2023-07-02T18:28:55;23.40;;;10.67;;
28605;SDS011;46498;49.968;7.754;2023-07-02T18:33:55;25.52;;;10.93;;
28605;SDS011;46498;49.968;7.754;2023-07-02T18:38:56;33.70;;;11.18;;
28605;SDS011;46498;49.968;7.754;2023-07-02T18:43:58;22.75;;;10.45;;
28605;SDS011;46498;49.968;7.754;2023-07-02T18:48:59;27.48;;;11.25;;
28605;SDS011;46498;49.968;7.754;2023-07-02T18:54:02;34.10;;;11.48;;
28605;SDS011;46498;49.968;7.754;2023-07-02T18:59:03;26.70;;;10.45;;
28605;SDS011;46498;49.968;7.754;2023-07-02T19:04:04;31.62;;;11.50;;
28605;SDS011;46498;49.968;7.754;2023-07-02T19:09:06;27.70;;;11.27;;
28605;SDS011;46498;49.968;7.754;2023-07-02T19:14:07;25.12;;;10.65;;
28605;SDS011;46498;49.968;7.754;2023-07-02T19:19:08;32.03;;;11.27;;
28605;SDS011;46498;49.968;7.754;2023-07-02T19:24:09;31.10;;;11.40;;
28605;SDS011;46498;49.968;7.754;2023-07-02T19:29:11;27.07;;;10.20;;
28605;SDS011;46498;49.968;7.754;2023-07-02T19:34:17;27.42;;;10.95;;
28605;SDS011;46498;49.968;7.754;2023-07-02T19:39:19;26.77;;;10.50;;
28605;SDS011;46498;49.968;7.754;2023-07-02T19:44:20;32.25;;;11.50;;
28605;SDS011;46498;49.968;7.754;2023-07-02T19:49:21;31.92;;;11.27;;
28605;SDS011;46498;49.968;7.754;2023-07-02T19:54:22;30.10;;;10.57;;
28605;SDS011;46498;49.968;7.754;2023-07-02T19:59:23;24.90;;;10.35;;
28605;SDS011;46498;49.968;7.754;2023-07-02T20:04:24;25.20;;;10.80;;
28605;SDS011;46498;49.968;7.754;2023-07-02T20:09:30;28.48;;;10.27;;
28605;SDS011;46498;49.968;7.754;2023-07-02T20:14:31;27.25;;;11.55;;
28605;SDS011;46498;49.968;7.754;2023-07-02T20:19:32;26.60;;;10.63;;
28605;SDS011;46498;49.968;7.754;2023-07-02T20:24:34;24.23;;;10.10;;
28605;SDS011;46498;49.968;7.754;2023-07-02T20:29:36;32.17;;;10.87;;
28605;SDS011;46498;49.968;7.754;2023-07-02T20:34:37;27.65;;;10.88;;
28605;SDS011;46498;49.968;7.754;2023-07-02T20:39:38;26.30;;;9.98;;
28605;SDS011;46498;49.968;7.754;2023-07-02T20:44:43;25.92;;;10.05;;
28605;SDS011;46498;49.968;7.754;2023-07-02T20:49:47;23.70;;;10.23;;
28605;SDS011;46498;49.968;7.754;2023-07-02T20:54:52;22.95;;;9.57;;
28605;SDS011;46498;49.968;7.754;2023-07-02T20:59:54;24.47;;;9.53;;
28605;SDS011;46498;49.968;7.754;2023-07-02T21:04:55;22.85;;;9.85;;
28605;SDS011;46498;49.968;7.754;2023-07-02T21:09:57;27.98;;;10.23;;
28605;SDS011;46498;49.968;7.754;2023-07-02T21:14:58;33.38;;;10.07;;
28605;SDS011;46498;49.968;7.754;2023-07-02T21:19:59;29.27;;;10.05;;
28605;SDS011;46498;49.968;7.754;2023-07-02T21:25:00;27.30;;;10.40;;
28605;SDS011;46498;49.968;7.754;2023-07-02T21:30:01;26.92;;;8.95;;
28605;SDS011;46498;49.968;7.754;2023-07-02T21:35:03;25.30;;;9.60;;
28605;SDS011;46498;49.968;7.754;2023-07-02T21:40:04;22.05;;;8.73;;
28605;SDS011;46498;49.968;7.754;2023-07-02T21:45:07;24.90;;;9.90;;
28605;SDS011;46498;49.968;7.754;2023-07-02T21:50:09;24.80;;;9.23;;
28605;SDS011;46498;49.968;7.754;2023-07-02T21:55:10;26.75;;;9.63;;
28605;SDS011;46498;49.968;7.754;2023-07-02T22:00:11;22.33;;;9.05;;
28605;SDS011;46498;49.968;7.754;2023-07-02T22:05:18;29.77;;;9.27;;
28605;SDS011;46498;49.968;7.754;2023-07-02T22:10:19;30.15;;;10.35;;
28605;SDS011;46498;49.968;7.754;2023-07-02T22:15:21;27.37;;;9.75;;
28605;SDS011;46498;49.968;7.754;2023-07-02T22:20:22;28.20;;;9.95;;
28605;SDS011;46498;49.968;7.754;2023-07-02T22:25:23;26.02;;;9.07;;
28605;SDS011;46498;49.968;7.754;2023-07-02T22:30:25;27.52;;;9.82;;
28605;SDS011;46498;49.968;7.754;2023-07-02T22:35:27;27.17;;;10.00;;
28605;SDS011;46498;49.968;7.754;2023-07-02T22:40:28;24.83;;;9.97;;
28605;SDS011;46498;49.968;7.754;2023-07-02T22:45:30;25.42;;;10.55;;
28605;SDS011;46498;49.968;7.754;2023-07-02T22:50:31;23.90;;;9.20;;
28605;SDS011;46498;49.968;7.754;2023-07-02T22:55:32;25.45;;;9.85;;
28605;SDS011;46498;49.968;7.754;2023-07-02T23:00:33;25.52;;;9.77;;
28605;SDS011;46498;49.968;7.754;2023-07-02T23:05:34;25.67;;;9.82;;
28605;SDS011;46498;49.968;7.754;2023-07-02T23:10:35;28.50;;;9.93;;
28605;SDS011;46498;49.968;7.754;2023-07-02T23:15:35;23.40;;;8.70;;
28605;SDS011;46498;49.968;7.754;2023-07-02T23:20:36;25.48;;;9.80;;
28605;SDS011;46498;49.968;7.754;2023-07-02T23:25:37;27.65;;;10.98;;
28605;SDS011;46498;49.968;7.754;2023-07-02T23:30:38;23.17;;;10.15;;
28605;SDS011;46498;49.968;7.754;2023-07-02T23:35:42;27.08;;;10.00;;
28605;SDS011;46498;49.968;7.754;2023-07-02T23:40:43;30.17;;;11.12;;
28605;SDS011;46498;49.968;7.754;2023-07-02T23:45:45;24.70;;;11.57;;
28605;SDS011;46498;49.968;7.754;2023-07-02T23:50:46;23.98;;;10.35;;
28605;SDS011;46498;49.968;7.754;2023-07-02T23:55:48;29.12;;;10.13;;
